Time;durP1;ratioP1;P1;durP2;ratioP2;P2;SDS_P1;SDS_P2;PMS_P1;PMS_P2;Temp;Humidity;BMP_temperature;BMP_pressure;BME280_temperature;BME280_humidity;BME280_pressure;Samples;Min_cycle;Max_cycle;Signal;HPM_P1;HPM_P2
2020/12/21 00:01:47;;;;;;;7.68;2.00;;;22.20;20.10;;;;;;5054844;28;20117;-67
2020/12/21 00:04:14;;;;;;;4.95;1.65;;;22.10;20.50;;;;;;5052301;28;20083;-68
2020/12/21 00:06:44;;;;;;;10.25;1.60;;;21.90;21.00;;;;;;5072280;28;20059;-68
2020/12/21 00:09:10;;;;;;;11.23;1.60;;;21.80;21.60;;;;;;5076287;28;20079;-69
2020/12/21 00:11:40;;;;;;;11.30;2.00;;;21.70;21.70;;;;;;5052316;28;20174;-68
2020/12/21 00:14:11;;;;;;;6.15;1.73;;;21.60;21.10;;;;;;5073730;28;20090;-68
2020/12/21 00:16:53;;;;;;;13.43;2.67;;;21.50;21.50;;;;;;5071220;28;20439;-69
2020/12/21 00:19:21;;;;;;;29.60;4.28;;;21.40;22.10;;;;;;5072397;28;20090;-69
2020/12/21 00:21:52;;;;;;;20.45;3.45;;;21.20;22.50;;;;;;5073046;28;20066;-69
2020/12/21 00:24:22;;;;;;;35.45;4.90;;;21.10;22.30;;;;;;5071776;28;20106;-69
2020/12/21 00:26:51;;;;;;;35.85;6.57;;;21.00;22.20;;;;;;5077535;28;20079;-69
2020/12/21 00:29:18;;;;;;;23.35;6.47;;;20.80;21.70;;;;;;5052346;28;20104;-68
2020/12/21 00:31:46;;;;;;;19.65;6.60;;;20.60;22.50;;;;;;5069749;28;20118;-69
2020/12/21 00:34:13;;;;;;;25.60;6.45;;;20.40;22.60;;;;;;5071086;28;20075;-68
2020/12/21 00:36:47;;;;;;;30.33;6.82;;;20.30;23.40;;;;;;5068814;28;20070;-68
2020/12/21 00:39:14;;;;;;;26.42;6.05;;;20.10;23.70;;;;;;5070665;28;20076;-69
2020/12/21 00:41:43;;;;;;;43.60;7.38;;;20.00;23.90;;;;;;5066347;28;20476;-69
2020/12/21 00:44:11;;;;;;;61.95;8.10;;;19.70;23.60;;;;;;5071585;28;20207;-70
2020/12/21 00:46:38;;;;;;;137.43;16.67;;;19.60;24.60;;;;;;5073312;28;20074;-69
2020/12/21 00:49:05;;;;;;;471.27;46.15;;;19.40;25.00;;;;;;5065604;28;20587;-70
2020/12/21 00:51:32;;;;;;;456.20;46.83;;;19.20;25.40;;;;;;5069518;28;20144;-70
2020/12/21 00:53:59;;;;;;;436.58;45.40;;;19.00;26.40;;;;;;5072512;28;20121;-69
2020/12/21 00:56:26;;;;;;;214.60;24.65;;;18.90;26.90;;;;;;5052946;28;20072;-70
2020/12/21 00:58:53;;;;;;;216.10;27.23;;;18.70;28.00;;;;;;5069906;28;20444;-70
2020/12/21 01:01:23;;;;;;;140.55;22.30;;;18.50;28.50;;;;;;5067397;28;20095;-71
2020/12/21 01:03:49;;;;;;;107.72;19.25;;;18.40;28.90;;;;;;5071085;28;20554;-69
2020/12/21 01:06:15;;;;;;;;;;;18.30;29.30;;;;;;5070221;28;20158;-69
2020/12/21 01:08:45;;;;;;;64.25;13.70;;;18.20;29.30;;;;;;5068647;28;20427;-69
2020/12/21 01:11:16;;;;;;;61.33;13.48;;;18.00;29.20;;;;;;5051205;28;20103;-67
2020/12/21 01:13:44;;;;;;;50.00;14.10;;;17.90;29.70;;;;;;5071331;28;20145;-68
2020/12/21 01:16:11;;;;;;;42.42;11.65;;;17.70;29.70;;;;;;5053729;28;20076;-68
2020/12/21 01:18:37;;;;;;;48.58;12.07;;;17.60;30.10;;;;;;5066856;28;20421;-71
2020/12/21 01:21:04;;;;;;;;;;;17.50;30.50;;;;;;5049376;28;20083;-68
2020/12/21 01:23:30;;;;;;;47.83;14.65;;;17.30;30.20;;;;;;5070525;28;20010;-69
2020/12/21 01:25:57;;;;;;;45.13;14.45;;;17.20;30.60;;;;;;5066861;28;20076;-70
2020/12/21 01:28:23;;;;;;;;;;;17.10;31.20;;;;;;5069361;28;20161;-69
2020/12/21 01:30:49;;;;;;;55.05;15.55;;;17.00;31.50;;;;;;5067138;28;20443;-68
2020/12/21 01:33:16;;;;;;;53.83;16.13;;;16.90;31.90;;;;;;5067159;28;20094;-67
2020/12/21 01:35:43;;;;;;;54.90;16.73;;;16.90;32.50;;;;;;5074527;28;20612;-68
2020/12/21 01:38:10;;;;;;;58.65;19.40;;;16.80;32.40;;;;;;5067499;28;20078;-70
2020/12/21 01:40:36;;;;;;;64.20;21.98;;;16.70;32.90;;;;;;5067647;28;20415;-67
2020/12/21 01:43:03;;;;;;;99.60;25.27;;;16.60;33.00;;;;;;5069834;28;20072;-67
2020/12/21 01:45:29;;;;;;;;;;;16.50;33.20;;;;;;5067840;28;20546;-67
2020/12/21 01:47:55;;;;;;;94.90;24.25;;;16.40;34.00;;;;;;5051346;28;19974;-66
2020/12/21 01:50:22;;;;;;;65.55;17.25;;;16.40;34.50;;;;;;5063809;28;20082;-63
2020/12/21 01:52:49;;;;;;;87.90;20.38;;;16.30;35.30;;;;;;5054323;28;20099;-65
2020/12/21 01:55:15;;;;;;;;;;;16.20;35.70;;;;;;5050922;28;20072;-68
2020/12/21 01:57:41;;;;;;;64.30;17.00;;;16.20;35.90;;;;;;5071105;28;20002;-68
2020/12/21 02:00:08;;;;;;;;;;;16.10;35.70;;;;;;5062990;28;21616;-67
2020/12/21 02:02:35;;;;;;;48.40;15.50;;;16.00;35.70;;;;;;5052281;28;19955;-67
2020/12/21 02:05:03;;;;;;;54.78;18.50;;;15.90;36.10;;;;;;5075455;28;20431;-69
2020/12/21 02:07:29;;;;;;;75.60;20.90;;;15.80;35.70;;;;;;5065306;28;20079;-69
2020/12/21 02:09:56;;;;;;;;;;;15.70;36.80;;;;;;5048821;28;20161;-69
2020/12/21 02:12:22;;;;;;;67.72;21.25;;;15.70;37.00;;;;;;5066589;28;20382;-68
2020/12/21 02:14:49;;;;;;;;;;;15.60;37.50;;;;;;5051867;28;20068;-68
2020/12/21 02:17:15;;;;;;;48.55;17.55;;;15.50;36.50;;;;;;5065830;28;20335;-68
2020/12/21 02:19:43;;;;;;;;;;;15.50;37.50;;;;;;5077059;28;20151;-68
2020/12/21 02:22:11;;;;;;;41.35;16.58;;;15.40;37.50;;;;;;5068758;28;19960;-68
2020/12/21 02:24:40;;;;;;;35.15;15.77;;;15.30;37.20;;;;;;5071415;28;20094;-69
2020/12/21 02:27:07;;;;;;;37.83;16.08;;;15.20;36.80;;;;;;5068151;28;20087;-69
2020/12/21 02:29:33;;;;;;;50.45;18.20;;;15.20;36.90;;;;;;5069407;28;20100;-69
2020/12/21 02:32:00;;;;;;;42.80;16.70;;;15.10;37.20;;;;;;5067488;28;20375;-69
2020/12/21 02:34:27;;;;;;;50.60;17.63;;;15.00;37.40;;;;;;5057190;28;20080;-69
2020/12/21 02:36:55;;;;;;;55.10;16.70;;;15.00;37.60;;;;;;5053119;28;20213;-68
2020/12/21 02:39:23;;;;;;;37.83;17.38;;;14.90;37.80;;;;;;5074338;28;20529;-68
2020/12/21 02:41:51;;;;;;;44.95;18.20;;;14.80;38.00;;;;;;5057320;28;20083;-68
2020/12/21 02:44:18;;;;;;;43.40;17.08;;;14.80;38.00;;;;;;5054914;28;20080;-68
2020/12/21 02:46:45;;;;;;;48.63;18.70;;;14.80;38.50;;;;;;5069482;28;20540;-68
2020/12/21 02:49:13;;;;;;;53.35;18.95;;;14.70;38.20;;;;;;5073306;28;20087;-66
2020/12/21 02:51:39;;;;;;;48.10;19.48;;;14.60;38.50;;;;;;5071067;28;20464;-67
2020/12/21 02:54:06;;;;;;;68.18;21.40;;;14.60;39.10;;;;;;5069172;28;20067;-68
2020/12/21 02:56:32;;;;;;;;;;;14.60;39.60;;;;;;5075531;28;20482;-69
2020/12/21 02:58:59;;;;;;;57.05;22.33;;;14.50;39.90;;;;;;5071209;28;19960;-69
2020/12/21 03:01:27;;;;;;;52.92;21.20;;;14.50;40.10;;;;;;5072736;28;20100;-68
2020/12/21 03:03:53;;;;;;;64.13;26.00;;;14.40;40.40;;;;;;5073120;28;20574;-68
2020/12/21 03:06:20;;;;;;;;;;;14.40;40.30;;;;;;5055036;28;20079;-70
2020/12/21 03:08:46;;;;;;;69.30;26.20;;;14.40;40.30;;;;;;5077449;28;20001;-69
2020/12/21 03:11:12;;;;;;;65.15;26.73;;;14.30;40.50;;;;;;5055285;28;20187;-69
2020/12/21 03:13:39;;;;;;;73.10;27.77;;;14.30;40.00;;;;;;5058298;28;20077;-68
2020/12/21 03:16:05;;;;;;;;;;;14.20;40.70;;;;;;5053246;28;20072;-69
2020/12/21 03:18:32;;;;;;;76.60;28.45;;;14.20;41.30;;;;;;5072652;28;20339;-69
2020/12/21 03:21:01;;;;;;;;;;;14.10;41.20;;;;;;5053448;28;20451;-69
2020/12/21 03:23:28;;;;;;;80.13;33.33;;;14.10;41.30;;;;;;5053718;28;20051;-69
2020/12/21 03:25:54;;;;;;;90.68;36.38;;;14.00;41.80;;;;;;5071621;28;20558;-69
2020/12/21 03:28:21;;;;;;;88.85;36.83;;;14.00;42.00;;;;;;5055569;28;20211;-69
2020/12/21 03:30:47;;;;;;;;;;;13.90;42.60;;;;;;5072206;28;20095;-68
2020/12/21 03:33:13;;;;;;;117.78;49.55;;;13.90;42.10;;;;;;5056384;28;19956;-68
2020/12/21 03:35:40;;;;;;;114.05;52.67;;;13.90;41.90;;;;;;5073260;28;20368;-69
2020/12/21 03:38:06;;;;;;;;;;;13.80;41.80;;;;;;5071142;28;20077;-70
2020/12/21 03:40:33;;;;;;;109.55;49.88;;;13.70;42.20;;;;;;5072648;28;20048;-68
2020/12/21 03:42:59;;;;;;;;;;;13.70;42.90;;;;;;5053693;28;20451;-70
2020/12/21 03:45:25;;;;;;;104.13;47.03;;;13.70;43.00;;;;;;5071989;28;19955;-70
2020/12/21 03:47:52;;;;;;;117.32;48.90;;;13.60;43.30;;;;;;5083641;28;20072;-69
2020/12/21 03:50:19;;;;;;;116.68;51.95;;;13.60;43.40;;;;;;5051864;28;20092;-69
2020/12/21 03:52:45;;;;;;;;;;;13.60;43.90;;;;;;5072057;28;20646;-72
2020/12/21 03:55:12;;;;;;;110.93;50.30;;;13.60;44.20;;;;;;5073433;28;19980;-69
2020/12/21 03:57:38;;;;;;;;;;;13.50;44.50;;;;;;5069071;28;20082;-71
2020/12/21 04:00:07;;;;;;;111.03;47.00;;;13.50;44.90;;;;;;5053034;28;19962;-70
2020/12/21 04:02:34;;;;;;;109.63;46.97;;;13.40;44.80;;;;;;5075349;28;21734;-70
2020/12/21 04:05:05;;;;;;;113.90;48.63;;;13.40;45.00;;;;;;5052305;28;20097;-68
2020/12/21 04:07:31;;;;;;;88.63;43.47;;;13.40;45.10;;;;;;5071599;28;20528;-71
2020/12/21 04:09:58;;;;;;;112.22;48.25;;;13.40;45.20;;;;;;5051394;28;20181;-71
2020/12/21 04:12:24;;;;;;;;;;;13.30;45.30;;;;;;5066589;28;20091;-69
2020/12/21 04:14:51;;;;;;;120.00;53.55;;;13.30;45.80;;;;;;5075164;28;19955;-68
2020/12/21 04:17:17;;;;;;;120.70;58.40;;;13.20;45.40;;;;;;5054319;28;20455;-71
2020/12/21 04:19:43;;;;;;;;;;;13.20;44.80;;;;;;5071098;28;20186;-70
2020/12/21 04:22:10;;;;;;;130.25;61.05;;;13.10;44.30;;;;;;5070058;28;20012;-69
2020/12/21 04:24:36;;;;;;;;;;;13.00;44.30;;;;;;5073600;28;20082;-69
2020/12/21 04:27:03;;;;;;;122.85;60.58;;;13.00;44.80;;;;;;5073513;28;19955;-69
2020/12/21 04:29:29;;;;;;;;;;;13.00;44.60;;;;;;5053871;28;20143;-69
2020/12/21 04:31:56;;;;;;;133.68;58.63;;;13.00;44.70;;;;;;5053195;28;20022;-71
2020/12/21 04:34:26;;;;;;;135.27;61.00;;;12.90;45.30;;;;;;5051731;28;20078;-70
2020/12/21 04:36:56;;;;;;;120.47;57.10;;;12.90;45.00;;;;;;5033856;28;20072;-69
2020/12/21 04:39:24;;;;;;;134.55;58.42;;;12.90;45.80;;;;;;5032628;28;20068;-69
2020/12/21 04:41:57;;;;;;;157.50;60.88;;;12.80;45.40;;;;;;5050639;28;20187;-68
2020/12/21 04:44:25;;;;;;;154.35;60.30;;;12.80;45.60;;;;;;5049432;28;20509;-69
2020/12/21 04:46:58;;;;;;;144.40;61.67;;;12.80;45.80;;;;;;5050786;28;20096;-68
2020/12/21 04:49:27;;;;;;;136.40;59.78;;;12.80;46.20;;;;;;5048848;28;20096;-70
2020/12/21 04:51:54;;;;;;;138.88;62.63;;;12.80;46.10;;;;;;5032295;28;20131;-69
2020/12/21 04:54:21;;;;;;;151.35;70.35;;;12.80;46.40;;;;;;5050979;28;20141;-68
2020/12/21 04:56:47;;;;;;;161.55;76.10;;;12.70;46.30;;;;;;5049016;28;20084;-69
2020/12/21 04:59:14;;;;;;;;;;;12.70;46.10;;;;;;5032531;28;20417;-69
2020/12/21 05:01:41;;;;;;;183.73;79.35;;;12.60;46.30;;;;;;5051082;28;19957;-69
2020/12/21 05:04:07;;;;;;;169.82;79.13;;;12.60;46.60;;;;;;5050056;28;20080;-69
2020/12/21 05:06:34;;;;;;;;;;;12.60;46.80;;;;;;5049771;28;20522;-69
2020/12/21 05:09:05;;;;;;;178.82;82.60;;;12.60;47.50;;;;;;5051140;28;20377;-70
2020/12/21 05:11:33;;;;;;;167.45;82.63;;;12.50;47.40;;;;;;5050180;28;20092;-69
2020/12/21 05:14:07;;;;;;;174.02;80.20;;;12.50;47.60;;;;;;5051297;28;20078;-70
2020/12/21 05:16:34;;;;;;;166.15;76.97;;;12.50;47.00;;;;;;5031675;28;20089;-69
2020/12/21 05:19:01;;;;;;;182.60;78.32;;;12.50;47.70;;;;;;5032486;28;20085;-71
2020/12/21 05:21:32;;;;;;;175.77;80.13;;;12.50;48.20;;;;;;5032583;28;20084;-69
2020/12/21 05:24:00;;;;;;;174.57;75.30;;;12.40;48.30;;;;;;5049481;28;20077;-69
2020/12/21 05:26:31;;;;;;;170.93;79.15;;;12.40;48.20;;;;;;5032010;28;20077;-69
2020/12/21 05:28:59;;;;;;;187.23;79.65;;;12.40;48.50;;;;;;5039822;28;20116;-69
2020/12/21 05:31:26;;;;;;;186.48;82.38;;;12.40;48.60;;;;;;5059289;28;20775;-69
2020/12/21 05:33:53;;;;;;;180.07;78.18;;;12.30;48.60;;;;;;5035463;28;20101;-69
2020/12/21 05:36:22;;;;;;;160.93;71.97;;;12.30;48.80;;;;;;5053423;28;20156;-69
2020/12/21 05:39:02;;;;;;;151.52;67.72;;;12.20;48.20;;;;;;5038569;28;20079;-68
2020/12/21 05:41:28;;;;;;;155.23;67.35;;;12.20;48.00;;;;;;5053315;28;20130;-69
2020/12/21 05:43:58;;;;;;;;;;;12.10;48.00;;;;;;5054971;28;20568;-69
2020/12/21 05:46:25;;;;;;;156.63;66.10;;;12.10;48.00;;;;;;5057411;28;19957;-70
2020/12/21 05:48:56;;;;;;;173.40;73.82;;;12.10;48.30;;;;;;5053514;28;20540;-69
2020/12/21 05:51:34;;;;;;;170.82;71.35;;;12.10;48.60;;;;;;5034583;28;20094;-70
2020/12/21 05:54:02;;;;;;;152.02;65.50;;;12.10;49.10;;;;;;5036331;28;20539;-71
2020/12/21 05:56:32;;;;;;;148.93;63.78;;;12.10;49.10;;;;;;5059969;28;20076;-70
2020/12/21 05:58:59;;;;;;;161.07;67.30;;;12.10;48.90;;;;;;5050275;28;20341;-71
2020/12/21 06:01:27;;;;;;;152.85;63.67;;;12.00;48.80;;;;;;5033523;28;20080;-71
2020/12/21 06:04:01;;;;;;;148.05;65.38;;;12.00;48.40;;;;;;5039445;28;20072;-71
2020/12/21 06:06:32;;;;;;;136.65;61.00;;;12.00;48.80;;;;;;5037574;28;20548;-71
2020/12/21 06:09:01;;;;;;;145.70;58.05;;;12.00;49.10;;;;;;5051290;28;20551;-71
2020/12/21 06:11:29;;;;;;;135.95;56.97;;;12.00;49.00;;;;;;5044139;28;20100;-71
2020/12/21 06:14:12;;;;;;;163.98;56.17;;;12.00;49.10;;;;;;5027888;28;20100;-69
2020/12/21 06:16:41;;;;;;;146.80;59.22;;;12.00;49.70;;;;;;5049383;28;20069;-69
2020/12/21 06:19:23;;;;;;;137.00;60.20;;;12.00;49.40;;;;;;5053486;28;20081;-70
2020/12/21 06:21:53;;;;;;;145.30;62.83;;;11.90;49.80;;;;;;5056765;28;20081;-71
2020/12/21 06:24:22;;;;;;;163.27;67.22;;;11.90;49.80;;;;;;5057092;28;20164;-71
2020/12/21 06:26:49;;;;;;;172.85;74.07;;;11.90;49.60;;;;;;5049622;28;20095;-71
2020/12/21 06:29:17;;;;;;;174.05;73.45;;;11.80;49.40;;;;;;5060173;28;20457;-69
2020/12/21 06:31:54;;;;;;;173.23;72.35;;;11.80;49.40;;;;;;5033762;28;20552;-68
2020/12/21 06:34:40;;;;;;;172.00;74.82;;;11.80;49.40;;;;;;5038654;28;20081;-68
2020/12/21 06:37:12;;;;;;;191.43;72.13;;;11.70;48.90;;;;;;5052803;28;20394;-71
2020/12/21 06:39:39;;;;;;;171.57;61.70;;;11.70;49.30;;;;;;5050793;28;20538;-69
2020/12/21 06:42:10;;;;;;;148.35;62.78;;;11.70;48.90;;;;;;5040855;28;20112;-67
2020/12/21 06:44:42;;;;;;;159.80;61.05;;;11.70;48.40;;;;;;5058305;28;20085;-68
2020/12/21 06:47:11;;;;;;;152.20;59.15;;;11.70;48.50;;;;;;5054513;28;20070;-68
2020/12/21 06:49:38;;;;;;;156.85;59.38;;;11.70;48.90;;;;;;5054603;28;20081;-70
2020/12/21 06:52:05;;;;;;;148.32;54.88;;;11.70;48.80;;;;;;5055706;28;20097;-69
2020/12/21 06:54:32;;;;;;;158.40;61.92;;;11.60;49.00;;;;;;5053658;28;20163;-68
2020/12/21 06:57:02;;;;;;;164.20;60.20;;;11.60;49.10;;;;;;5054999;28;20131;-69
2020/12/21 06:59:31;;;;;;;156.70;60.42;;;11.50;49.20;;;;;;5042645;28;20068;-69
2020/12/21 07:01:59;;;;;;;148.68;56.53;;;11.50;49.60;;;;;;5059147;28;20406;-69
2020/12/21 07:04:33;;;;;;;145.70;54.13;;;11.40;49.30;;;;;;5041221;28;20096;-68
2020/12/21 07:07:05;;;;;;;148.38;53.22;;;11.50;50.00;;;;;;5040927;28;20444;-69
2020/12/21 07:09:37;;;;;;;136.52;53.03;;;11.40;49.50;;;;;;5055645;28;20607;-69
2020/12/21 07:12:05;;;;;;;153.88;52.03;;;11.40;50.20;;;;;;5050689;28;20105;-69
2020/12/21 07:14:41;;;;;;;141.25;49.83;;;11.40;50.40;;;;;;5032076;28;20442;-69
2020/12/21 07:17:12;;;;;;;136.73;47.28;;;11.30;49.80;;;;;;5053070;28;20118;-69
2020/12/21 07:19:42;;;;;;;115.80;47.97;;;11.30;50.40;;;;;;5038511;28;20164;-68
2020/12/21 07:22:10;;;;;;;137.35;47.22;;;11.30;50.20;;;;;;5062780;28;20066;-70
2020/12/21 07:24:39;;;;;;;134.93;45.72;;;11.30;50.70;;;;;;5039839;28;20073;-69
2020/12/21 07:27:06;;;;;;;118.68;42.38;;;11.30;50.60;;;;;;5039550;28;20088;-69
2020/12/21 07:29:33;;;;;;;98.93;41.17;;;11.40;50.70;;;;;;5038631;28;20196;-68
2020/12/21 07:32:00;;;;;;;119.65;46.67;;;11.40;50.90;;;;;;5057980;28;20105;-69
2020/12/21 07:34:27;;;;;;;119.05;45.60;;;11.30;50.60;;;;;;5035105;28;20092;-68
2020/12/21 07:36:54;;;;;;;;;;;11.30;50.80;;;;;;5039373;28;20160;-69
2020/12/21 07:39:21;;;;;;;142.98;54.55;;;11.20;51.30;;;;;;5040539;28;19965;-69
2020/12/21 07:41:53;;;;;;;176.50;71.25;;;11.20;51.40;;;;;;5042858;28;20573;-69
2020/12/21 07:44:27;;;;;;;188.80;77.60;;;11.20;51.70;;;;;;5037663;28;20168;-69
2020/12/21 07:47:02;;;;;;;184.40;75.68;;;11.10;51.60;;;;;;5058891;28;20077;-68
2020/12/21 07:49:35;;;;;;;181.38;69.25;;;11.20;51.80;;;;;;5043846;28;20073;-68
2020/12/21 07:52:07;;;;;;;136.52;53.50;;;11.10;52.10;;;;;;5073408;28;20449;-68
2020/12/21 07:54:44;;;;;;;147.00;59.00;;;11.10;52.00;;;;;;5059056;28;20080;-69
2020/12/21 07:57:18;;;;;;;;;;;11.10;52.20;;;;;;5063136;28;20953;-70
2020/12/21 07:59:59;;;;;;;138.55;48.15;;;11.00;52.50;;;;;;5051628;28;20422;-70
2020/12/21 08:02:27;;;;;;;132.23;48.42;;;11.00;52.90;;;;;;5041318;28;20076;-69
2020/12/21 08:04:53;;;;;;;125.78;48.17;;;10.90;52.30;;;;;;5022792;28;20124;-68
2020/12/21 08:07:27;;;;;;;118.70;48.20;;;11.00;52.40;;;;;;5056406;28;20073;-68
2020/12/21 08:09:54;;;;;;;139.45;48.35;;;10.90;52.30;;;;;;5037225;28;20093;-69
2020/12/21 08:12:21;;;;;;;134.13;48.95;;;10.90;52.60;;;;;;5042065;28;20131;-68
2020/12/21 08:14:58;;;;;;;127.10;48.65;;;10.80;52.60;;;;;;5058862;28;20073;-73
2020/12/21 08:17:29;;;;;;;117.70;50.00;;;10.80;52.80;;;;;;5056746;28;20563;-69
2020/12/21 08:19:58;;;;;;;130.55;48.70;;;10.80;52.60;;;;;;5056366;28;20135;-69
2020/12/21 08:22:30;;;;;;;118.38;48.70;;;10.80;52.40;;;;;;5040019;28;20546;-68
2020/12/21 08:25:10;;;;;;;127.95;48.83;;;10.80;53.10;;;;;;5053546;28;21002;-69
2020/12/21 08:27:37;;;;;;;131.25;47.17;;;10.80;52.90;;;;;;5057327;28;20112;-69
2020/12/21 08:30:18;;;;;;;119.72;47.88;;;10.80;53.20;;;;;;5067008;28;20541;-68
2020/12/21 08:32:45;;;;;;;134.10;48.58;;;10.70;53.60;;;;;;5071119;28;20085;-69
2020/12/21 08:35:12;;;;;;;127.32;46.92;;;10.70;52.90;;;;;;5049958;28;20105;-68
2020/12/21 08:37:40;;;;;;;143.75;50.20;;;10.60;52.90;;;;;;5093975;28;20070;-69
2020/12/21 08:40:15;;;;;;;136.13;52.00;;;10.60;52.80;;;;;;5048545;28;20084;-69
2020/12/21 08:42:42;;;;;;;132.27;50.55;;;10.50;52.10;;;;;;5073312;28;20069;-69
2020/12/21 08:45:10;;;;;;;137.90;49.20;;;10.50;51.80;;;;;;5077684;28;20077;-69
2020/12/21 08:47:39;;;;;;;116.20;48.83;;;10.50;52.00;;;;;;5055652;28;20103;-69
2020/12/21 08:50:06;;;;;;;120.13;49.17;;;10.50;52.40;;;;;;5039609;28;20183;-69
2020/12/21 08:52:33;;;;;;;114.88;45.67;;;10.50;52.50;;;;;;5059386;28;20103;-70
2020/12/21 08:54:59;;;;;;;;;;;10.50;52.40;;;;;;5089063;28;20103;-69
2020/12/21 08:57:30;;;;;;;107.75;42.63;;;10.50;52.10;;;;;;5075379;28;19957;-69
2020/12/21 08:59:58;;;;;;;99.97;40.88;;;10.50;53.00;;;;;;5060165;28;20072;-69
2020/12/21 09:02:24;;;;;;;105.97;40.95;;;10.50;52.90;;;;;;5059187;28;20064;-69
2020/12/21 09:04:50;;;;;;;103.63;40.67;;;10.40;52.90;;;;;;5063053;28;20068;-68
2020/12/21 09:07:19;;;;;;;107.57;41.60;;;10.40;53.10;;;;;;5075381;28;20122;-69
2020/12/21 09:09:58;;;;;;;88.32;37.65;;;10.30;53.70;;;;;;5074326;28;20077;-68
2020/12/21 09:12:25;;;;;;;105.90;39.05;;;10.30;53.00;;;;;;5074971;28;20104;-69
2020/12/21 09:14:53;;;;;;;101.57;37.75;;;10.30;53.70;;;;;;5071105;28;20127;-69
2020/12/21 09:17:19;;;;;;;98.65;37.15;;;10.20;53.90;;;;;;5070857;28;20113;-70
2020/12/21 09:19:46;;;;;;;94.60;36.88;;;10.20;53.70;;;;;;5074304;28;20490;-68
2020/12/21 09:22:12;;;;;;;;;;;10.30;53.70;;;;;;5056375;28;20158;-69
2020/12/21 09:24:39;;;;;;;90.70;39.28;;;10.30;54.10;;;;;;5076253;28;19957;-69
2020/12/21 09:27:05;;;;;;;102.57;39.25;;;10.20;54.00;;;;;;5051664;28;20521;-69
2020/12/21 09:29:33;;;;;;;107.63;38.85;;;10.20;53.50;;;;;;5072639;28;20109;-69
2020/12/21 09:32:03;;;;;;;96.82;38.00;;;10.20;53.70;;;;;;5070208;28;20453;-70
2020/12/21 09:34:29;;;;;;;93.10;36.65;;;10.20;53.40;;;;;;5071832;28;20073;-69
2020/12/21 09:36:56;;;;;;;95.25;38.28;;;10.20;53.80;;;;;;5073026;28;20210;-70
2020/12/21 09:39:23;;;;;;;;;;;10.10;54.30;;;;;;5071789;28;20065;-69
2020/12/21 09:41:52;;;;;;;103.10;36.67;;;10.10;54.20;;;;;;5069858;28;20055;-69
2020/12/21 09:44:20;;;;;;;96.80;36.17;;;10.10;53.60;;;;;;5072692;28;20102;-69
2020/12/21 09:46:49;;;;;;;103.93;38.42;;;10.10;53.70;;;;;;5053865;28;20081;-69
2020/12/21 09:49:16;;;;;;;107.30;37.95;;;10.00;53.50;;;;;;5074768;28;20092;-69
2020/12/21 09:51:42;;;;;;;112.97;39.58;;;10.00;53.60;;;;;;5057125;28;20624;-69
2020/12/21 09:54:10;;;;;;;113.13;38.80;;;10.10;53.60;;;;;;5072717;28;20425;-69
2020/12/21 09:56:37;;;;;;;100.78;36.00;;;10.00;53.80;;;;;;5076904;28;20069;-69
2020/12/21 09:59:03;;;;;;;91.25;36.13;;;10.00;54.50;;;;;;5073041;28;20158;-70
2020/12/21 10:01:30;;;;;;;;;;;10.00;53.90;;;;;;5059248;28;20094;-70
2020/12/21 10:03:57;;;;;;;106.43;36.25;;;10.00;54.00;;;;;;5076457;28;19957;-69
2020/12/21 10:06:23;;;;;;;;;;;9.90;53.90;;;;;;5056505;28;20081;-69
2020/12/21 10:08:50;;;;;;;99.35;35.45;;;9.90;54.10;;;;;;5075560;28;20653;-70
2020/12/21 10:11:19;;;;;;;;;;;9.80;54.30;;;;;;5060838;28;20095;-69
2020/12/21 10:13:45;;;;;;;96.20;35.35;;;9.80;54.60;;;;;;5055421;28;19956;-69
2020/12/21 10:16:13;;;;;;;;;;;9.80;54.40;;;;;;5060653;28;20077;-69
2020/12/21 10:18:39;;;;;;;85.05;34.80;;;9.80;54.50;;;;;;5065323;28;19996;-69
2020/12/21 10:21:06;;;;;;;;;;;9.70;54.50;;;;;;5074690;28;20069;-69
2020/12/21 10:23:33;;;;;;;92.43;33.53;;;9.70;54.20;;;;;;5090124;28;19957;-69
2020/12/21 10:26:06;;;;;;;110.00;35.40;;;9.60;54.40;;;;;;5055921;28;20081;-69
2020/12/21 10:28:32;;;;;;;97.38;32.80;;;9.60;54.40;;;;;;5055150;28;20116;-69
2020/12/21 10:30:59;;;;;;;89.65;33.30;;;9.70;54.20;;;;;;5058234;28;20134;-69
2020/12/21 10:33:25;;;;;;;89.15;34.17;;;9.70;54.70;;;;;;5064755;28;20562;-69
2020/12/21 10:35:52;;;;;;;;;;;9.80;54.30;;;;;;5073568;28;20126;-69
2020/12/21 10:38:18;;;;;;;107.97;33.60;;;9.80;54.60;;;;;;5070324;28;20435;-69
2020/12/21 10:40:45;;;;;;;90.22;33.38;;;9.70;54.60;;;;;;5061492;28;20131;-69
2020/12/21 10:43:11;;;;;;;86.40;33.25;;;9.70;54.70;;;;;;5065774;28;20104;-69
2020/12/21 10:45:39;;;;;;;88.22;33.65;;;9.70;55.40;;;;;;5053563;28;20069;-71
2020/12/21 10:48:06;;;;;;;93.47;34.08;;;9.70;55.40;;;;;;5057380;28;20537;-70
2020/12/21 10:50:32;;;;;;;88.88;32.88;;;9.70;55.40;;;;;;5054296;28;20093;-70
2020/12/21 10:52:59;;;;;;;88.90;34.33;;;9.70;55.60;;;;;;5079015;28;20513;-69
2020/12/21 10:55:25;;;;;;;90.68;33.72;;;9.70;55.60;;;;;;5084306;28;21523;-70
2020/12/21 10:57:52;;;;;;;;;;;9.60;55.90;;;;;;5068003;28;20126;-69
2020/12/21 11:00:18;;;;;;;96.93;32.72;;;9.60;55.70;;;;;;5099114;28;20342;-70
2020/12/21 11:02:44;;;;;;;;;;;9.50;55.70;;;;;;5077970;28;20069;-69
2020/12/21 11:05:11;;;;;;;104.00;35.50;;;9.50;55.60;;;;;;5073604;28;19961;-69
2020/12/21 11:07:38;;;;;;;90.68;34.30;;;9.50;55.90;;;;;;5077250;28;20130;-70
2020/12/21 11:10:08;;;;;;;92.93;35.97;;;9.60;56.00;;;;;;5080452;28;20096;-69
2020/12/21 11:12:36;;;;;;;102.63;35.13;;;9.60;56.00;;;;;;5077474;28;21079;-69
2020/12/21 11:15:04;;;;;;;115.75;37.10;;;9.50;56.30;;;;;;5058039;28;20112;-69
2020/12/21 11:17:30;;;;;;;92.18;37.80;;;9.50;56.30;;;;;;5056672;28;20200;-69
2020/12/21 11:19:58;;;;;;;;;;;9.50;56.10;;;;;;5079391;28;20069;-69
2020/12/21 11:22:24;;;;;;;102.53;38.28;;;9.40;56.20;;;;;;5090539;28;20367;-68
2020/12/21 11:24:50;;;;;;;;;;;9.40;56.10;;;;;;5062567;28;20089;-69
2020/12/21 11:27:17;;;;;;;106.90;41.40;;;9.50;56.00;;;;;;5074267;28;19963;-69
2020/12/21 11:29:44;;;;;;;129.05;43.05;;;9.40;56.10;;;;;;5079883;28;20099;-69
2020/12/21 11:32:10;;;;;;;;;;;9.40;56.00;;;;;;5080320;28;20112;-69
2020/12/21 11:34:37;;;;;;;99.03;39.42;;;9.40;56.10;;;;;;5080901;28;19957;-69
2020/12/21 11:37:03;;;;;;;97.25;40.40;;;9.40;56.10;;;;;;5077281;28;20077;-68
2020/12/21 11:39:29;;;;;;;;;;;9.30;55.90;;;;;;5058365;28;20178;-69
2020/12/21 11:41:56;;;;;;;104.03;40.20;;;9.30;56.10;;;;;;5077421;28;19957;-69
2020/12/21 11:44:22;;;;;;;;;;;9.30;56.10;;;;;;5079156;28;20563;-69
2020/12/21 11:46:48;;;;;;;104.50;39.45;;;9.20;56.20;;;;;;5062176;28;20055;-69
2020/12/21 11:49:14;;;;;;;;;;;9.20;56.00;;;;;;5076280;28;20069;-69
2020/12/21 11:51:41;;;;;;;107.70;38.75;;;9.20;56.20;;;;;;5080490;28;20071;-69
2020/12/21 11:54:07;;;;;;;103.50;40.65;;;9.20;56.40;;;;;;5077798;28;20583;-69
2020/12/21 11:56:34;;;;;;;100.78;40.67;;;9.10;56.30;;;;;;5075216;28;20104;-68
2020/12/21 11:59:00;;;;;;;;;;;9.20;56.40;;;;;;5093910;28;20138;-69
2020/12/21 12:01:26;;;;;;;115.15;40.65;;;9.20;56.60;;;;;;5078735;28;19957;-70
2020/12/21 12:03:53;;;;;;;111.20;40.58;;;9.10;56.80;;;;;;5072833;28;20168;-69
2020/12/21 12:06:26;;;;;;;106.88;40.17;;;9.20;56.80;;;;;;5080665;28;20135;-68
2020/12/21 12:08:56;;;;;;;100.93;41.33;;;9.10;56.50;;;;;;5076006;28;20625;-69
2020/12/21 12:11:23;;;;;;;94.60;38.53;;;9.10;56.50;;;;;;5059598;28;20100;-69
2020/12/21 12:13:50;;;;;;;103.65;41.03;;;9.10;56.80;;;;;;5057505;28;20075;-69
2020/12/21 12:16:24;;;;;;;105.25;39.47;;;9.00;56.60;;;;;;5077307;28;20078;-69
2020/12/21 12:18:51;;;;;;;90.72;40.15;;;9.00;57.00;;;;;;5075645;28;20159;-69
2020/12/21 12:21:24;;;;;;;;;;;9.00;56.60;;;;;;5070497;28;20069;-69
2020/12/21 12:23:50;;;;;;;105.30;39.03;;;9.00;56.70;;;;;;5069233;28;19957;-69
2020/12/21 12:26:18;;;;;;;99.68;40.08;;;8.90;56.60;;;;;;5074713;28;20069;-69
2020/12/21 12:28:45;;;;;;;110.82;41.38;;;9.00;57.00;;;;;;5065843;28;20109;-69
2020/12/21 12:31:19;;;;;;;98.72;38.70;;;8.90;56.80;;;;;;5039214;28;20097;-69
2020/12/21 12:33:46;;;;;;;88.53;39.08;;;9.00;56.90;;;;;;5055468;28;20077;-68
2020/12/21 12:36:25;;;;;;;109.82;41.10;;;8.90;56.70;;;;;;5061198;28;20148;-70
2020/12/21 12:38:52;;;;;;;94.93;39.42;;;8.90;57.20;;;;;;5056834;28;20108;-69
2020/12/21 12:41:19;;;;;;;101.13;40.42;;;8.90;57.40;;;;;;5059071;28;20105;-68
2020/12/21 12:43:46;;;;;;;97.18;39.72;;;8.80;57.00;;;;;;5055586;28;20093;-69